»·PEaware :: N242SK KTNP-KSAN

N242SK :: KTNP-KSAN

FLIGHT INFORMATION

Flight Status: Arrived
Operator: Privately registered:
United States
More flights under this callsign
Pilot: Sanjiv S. (4490)
Aircraft: SOCATA TBM-900
(TBM9)
More flights by this aircraft type
Origin: KTNP Twentynine Palms
United States
Destination: KSAN San Diego Intl-Lindbergh
United States
More flights between these airports :: More routes between these airports
Route: TNP V208 JLI
File this flight plan on PilotEdge
Remarks:
Altitude:
(Current/Filed)
16,000ft
Speed:
(Current/Filed)
220kts
Departed: 15-Nov-18 10:13 AM
Arrived: 15-Nov-18 11:02 AM
Distance/Time
Traveled:
104nm/0:48
Distance/Time
To Go:
Arrived

Flight Plot

Page will automatically refresh every two minutes.


Map Options




Map Legend


Flown Route
Filed Route
Departure Airport
Arrival Airport
Navaid (VOR, NDB)
Fix

Horizontal Profiles

Position Reports

Time Latitude Longitude Heading Altitude Ground
Speed
15-Nov-18 09:47 34.135787 -115.943355 269 1821ft 0kts
15-Nov-18 09:48 34.135787 -115.943355 269 1821ft 0kts
15-Nov-18 09:49 34.135787 -115.943354 269 1820ft 0kts
15-Nov-18 09:50 34.135787 -115.943354 269 1820ft 0kts
15-Nov-18 09:51 34.135787 -115.943354 269 1820ft 0kts
15-Nov-18 09:52 34.135787 -115.943354 269 1820ft 0kts
15-Nov-18 09:53 34.135787 -115.943354 269 1820ft 0kts
15-Nov-18 09:54 34.135787 -115.943354 269 1820ft 0kts
15-Nov-18 09:55 34.135787 -115.943354 269 1820ft 0kts
15-Nov-18 09:56 34.135787 -115.943354 269 1820ft 0kts
15-Nov-18 09:57 34.135787 -115.943354 269 1820ft 0kts
15-Nov-18 09:58 34.135787 -115.943354 269 1820ft 0kts
15-Nov-18 09:59 34.135787 -115.943354 269 1820ft 0kts
15-Nov-18 10:00 34.135787 -115.943354 269 1820ft 0kts
15-Nov-18 10:01 34.135787 -115.943354 269 1820ft 0kts
15-Nov-18 10:02 34.135787 -115.943354 269 1820ft 0kts
15-Nov-18 10:03 34.135787 -115.943354 269 1820ft 0kts
15-Nov-18 10:04 34.135787 -115.943354 269 1820ft 0kts
15-Nov-18 10:05 34.135787 -115.943354 269 1820ft 0kts
15-Nov-18 10:06 34.135787 -115.943354 269 1820ft 0kts
15-Nov-18 10:07 34.135787 -115.943355 269 1821ft 0kts
15-Nov-18 10:08 34.135787 -115.943355 269 1821ft 0kts
15-Nov-18 10:09 34.135787 -115.943355 269 1821ft 0kts
15-Nov-18 10:10 34.135787 -115.943377 269 1821ft 0kts
15-Nov-18 10:11 34.135233 -115.943433 107 1822ft 11kts
15-Nov-18 10:12 34.135286 -115.937179 95 1790ft 20kts
15-Nov-18 10:13 34.134877 -115.935212 179 1780ft 0kts
15-Nov-18 10:14 34.134877 -115.935212 179 1780ft 0kts
15-Nov-18 10:15 34.134431 -115.935425 268 1782ft 0kts
15-Nov-18 10:16 34.134413 -115.954136 269 1985ft 127kts
15-Nov-18 10:17 34.120191 -115.973567 141 3188ft 131kts
15-Nov-18 10:18 34.117634 -115.936331 80 4160ft 150kts
15-Nov-18 10:19 34.122943 -115.892070 80 5149ft 153kts
15-Nov-18 10:20 34.121207 -115.849782 96 6069ft 155kts
15-Nov-18 10:21 34.115863 -115.802591 95 7056ft 182kts
15-Nov-18 10:22 34.086859 -115.777171 217 8546ft 194kts
15-Nov-18 10:23 34.058102 -115.813458 214 9920ft 190kts
15-Nov-18 10:24 34.023324 -115.841996 212 11264ft 187kts
15-Nov-18 10:25 33.990120 -115.868852 212 12563ft 185kts
15-Nov-18 10:26 33.958851 -115.894121 212 13804ft 193kts
15-Nov-18 10:27 33.926047 -115.920625 213 15056ft 199kts
15-Nov-18 10:28 33.893310 -115.947053 213 15940ft 215kts
15-Nov-18 10:29 33.854934 -115.978020 213 15997ft 256kts
15-Nov-18 10:30 33.811880 -116.012701 213 15982ft 276kts
15-Nov-18 10:31 33.764648 -116.050684 213 15976ft 285kts
15-Nov-18 10:32 33.716114 -116.089656 213 15973ft 289kts
15-Nov-18 10:33 33.666701 -116.129279 213 15972ft 290kts
15-Nov-18 10:34 33.619889 -116.167415 216 15971ft 291kts
15-Nov-18 10:35 33.573575 -116.208102 216 15972ft 291kts
15-Nov-18 10:36 33.527809 -116.248255 216 15973ft 291kts
15-Nov-18 10:37 33.481347 -116.288955 216 15973ft 292kts
15-Nov-18 10:38 33.434593 -116.329875 216 15973ft 292kts
15-Nov-18 10:39 33.388193 -116.370418 216 15973ft 292kts
15-Nov-18 10:40 33.341929 -116.410769 216 15974ft 292kts
15-Nov-18 10:41 33.296259 -116.450583 216 15972ft 292kts
15-Nov-18 10:42 33.250708 -116.490219 216 15966ft 292kts
15-Nov-18 10:43 33.204910 -116.530019 216 15961ft 292kts
15-Nov-18 10:44 33.159458 -116.569472 216 15950ft 291kts
15-Nov-18 10:45 33.119635 -116.616868 232 15951ft 290kts
15-Nov-18 10:46 33.086839 -116.666047 232 15869ft 289kts
15-Nov-18 10:47 33.062852 -116.701875 231 15472ft 283kts
15-Nov-18 10:48 33.027674 -116.754218 229 14617ft 283kts
15-Nov-18 10:49 32.972009 -116.780464 195 13565ft 283kts
15-Nov-18 10:50 32.915822 -116.799889 195 12539ft 283kts
15-Nov-18 10:51 32.863553 -116.817971 195 11102ft 273kts
15-Nov-18 10:52 32.810859 -116.835983 195 9554ft 266kts
15-Nov-18 10:53 32.759510 -116.853120 195 8019ft 261kts
15-Nov-18 10:54 32.708431 -116.869928 195 6465ft 257kts
15-Nov-18 10:55 32.660968 -116.888745 223 4990ft 248kts
15-Nov-18 10:56 32.666233 -116.933905 316 4533ft 212kts
15-Nov-18 10:57 32.682679 -116.977163 285 3646ft 195kts
15-Nov-18 10:58 32.692708 -117.019668 286 2599ft 179kts
15-Nov-18 10:59 32.701714 -117.057554 286 1667ft 114kts
15-Nov-18 11:00 32.709437 -117.089968 283 1016ft 146kts
15-Nov-18 11:01 32.715463 -117.121967 289 903ft 119kts
15-Nov-18 11:02 32.723074 -117.147887 290 558ft 117kts
15-Nov-18 11:03 32.729254 -117.172178 286 172ft 96kts
15-Nov-18 11:04 32.733635 -117.189791 277 18ft 42kts
15-Nov-18 11:05 32.734761 -117.190687 62 18ft 0kts
15-Nov-18 11:06 32.734866 -117.190344 87 18ft 4kts
15-Nov-18 11:07 32.734406 -117.188391 106 18ft 11kts
15-Nov-18 11:08 32.733621 -117.185175 105 18ft 15kts
15-Nov-18 11:09 32.732638 -117.181099 107 18ft 17kts
15-Nov-18 11:10 32.732828 -117.179232 105 18ft 0kts
15-Nov-18 11:11 32.732828 -117.179232 105 18ft 0kts

Navigation Log

Ident Type
Flight plan parsing failed, navigation log unavailable